Terminal Aerodrome Forecast
Issued by NWS Brownsville, TX

Home | Current Version | Previous Version | Text Only | Print | Product List | Glossary On
Versions: 1 2 3 4 5 6 7 8 9 10 11 12 13 14 15
000
FTUS44 KBRO 200521
TAFMFE
TAF
KMFE 200521Z 2006/2106 00000KT 6SM BR OVC011
     FM200900 00000KT 2SM BR OVC005
     FM201500 VRB02KT 4SM BR SCT005 OVC010
     FM201800 16010KT P6SM SCT015 BKN030
     FM202100 15012KT P6SM SCT030 BKN050
     FM210300 15010KT 4SM BR SCT015 BKN030=

USA.gov is the U.S. government's official web portal to all federal, state and local government web resources and services.